createdAt,value
2019-01-05T00:00:12.996Z,12.9
2019-01-05T00:01:01.773Z,12.9
2019-01-05T00:01:52.658Z,12.9
2019-01-05T00:02:43.281Z,12.9
2019-01-05T00:03:33.053Z,12.9
2019-01-05T00:04:23.031Z,12.9
2019-01-05T00:05:13.174Z,12.9
2019-01-05T00:06:03.692Z,12.9
2019-01-05T00:06:53.463Z,12.9
2019-01-05T00:07:43.566Z,12.9
2019-01-05T00:08:33.321Z,13
2019-01-05T00:09:23.111Z,13
2019-01-05T00:10:13.653Z,13
2019-01-05T00:11:03.265Z,13
2019-01-05T00:11:54.116Z,13
2019-01-05T00:12:43.610Z,13
2019-01-05T00:13:33.988Z,13
2019-01-05T00:14:23.238Z,13
2019-01-05T00:15:15.384Z,13
2019-01-05T00:33:27.514Z,13.1
2019-01-05T00:34:17.844Z,13.1
2019-01-05T00:35:07.287Z,13.1
2019-01-05T00:35:56.545Z,13.1
2019-01-05T00:36:46.347Z,13.1
2019-01-05T00:37:37.559Z,13.2
2019-01-05T00:38:27.869Z,13.1
2019-01-05T00:39:17.146Z,13.2
2019-01-05T00:40:07.752Z,13.2
2019-01-05T00:40:57.769Z,13.1
2019-01-05T00:41:46.992Z,13.2
2019-01-05T00:42:38.176Z,13.2
2019-01-05T00:43:27.408Z,13.2
2019-01-05T00:44:16.900Z,13.2
2019-01-05T00:45:08.329Z,13.2
2019-01-05T00:45:58.353Z,13.2
2019-01-05T00:46:47.596Z,13.2
2019-01-05T00:47:37.959Z,13.2
2019-01-05T00:48:28.856Z,13.2
2019-01-05T00:49:18.038Z,13.2
2019-01-05T00:50:07.860Z,13.2
2019-01-05T00:50:58.532Z,13.3
2019-01-05T00:51:49.321Z,13.2
2019-01-05T00:52:38.035Z,13.3
2019-01-05T00:53:28.068Z,13.3
2019-01-05T00:54:18.947Z,13.2
2019-01-05T00:55:08.813Z,13.3
2019-01-05T00:55:59.657Z,13.2
2019-01-05T00:56:48.828Z,13.3
2019-01-05T00:57:39.170Z,13.3
2019-01-05T00:58:28.413Z,13.3
2019-01-05T00:59:19.363Z,13.3
2019-01-05T01:00:09.092Z,13.3
2019-01-05T01:00:59.440Z,13.3
2019-01-05T01:01:49.200Z,13.3
2019-01-05T01:02:39.840Z,13.3
2019-01-05T01:03:27.667Z,13.3
2019-01-05T01:04:19.293Z,13.3
2019-01-05T01:05:08.607Z,13.3
2019-01-05T01:05:59.480Z,13.3
2019-01-05T01:06:49.812Z,13.3
2019-01-05T01:07:39.277Z,13.3
2019-01-05T01:08:29.405Z,13.3
2019-01-05T01:09:35.299Z,13.3
2019-01-05T01:10:10.358Z,13.3
2019-01-05T01:11:00.070Z,13.3
2019-01-05T01:11:50.084Z,13.3
2019-01-05T01:12:38.807Z,13.3
2019-01-05T01:13:29.997Z,13.3
2019-01-05T01:14:20.627Z,13.3
2019-01-05T01:15:09.832Z,13.3
2019-01-05T01:16:00.492Z,13.3
2019-01-05T01:16:48.557Z,13.3
2019-01-05T01:17:39.731Z,13.3
2019-01-05T01:18:31.183Z,13.3
2019-01-05T01:19:20.404Z,13.4
2019-01-05T01:20:10.814Z,13.3
2019-01-05T01:21:00.496Z,13.3
2019-01-05T01:21:51.328Z,13.3
2019-01-05T01:22:41.132Z,13.4
2019-01-05T01:23:30.666Z,13.3
2019-01-05T01:24:19.643Z,13.3
2019-01-05T01:25:11.369Z,13.3
2019-01-05T01:26:00.224Z,13.3
2019-01-05T01:26:50.836Z,13.3
2019-01-05T01:27:41.203Z,13.4
2019-01-05T01:28:30.273Z,13.4
2019-01-05T01:29:21.078Z,13.4
2019-01-05T01:30:12.004Z,13.4
2019-01-05T01:31:01.954Z,13.4
2019-01-05T01:31:51.791Z,13.4
2019-01-05T01:32:41.646Z,13.4
2019-01-05T01:33:31.860Z,13.3
2019-01-05T01:34:21.891Z,13.4
2019-01-05T01:35:11.513Z,13.4
2019-01-05T01:36:02.018Z,13.4
2019-01-05T01:36:51.476Z,13.4
2019-01-05T01:37:41.560Z,13.4
2019-01-05T01:38:31.638Z,13.4
2019-01-05T01:39:21.388Z,13.4
2019-01-05T01:40:12.037Z,13.4
2019-01-05T01:41:02.323Z,13.4
2019-01-05T01:41:52.425Z,13.4
2019-01-05T01:42:41.668Z,13.4
2019-01-05T01:43:32.507Z,13.4
2019-01-05T01:44:22.375Z,13.4
2019-01-05T01:45:11.270Z,13.4
2019-01-05T01:46:02.753Z,13.4
2019-01-05T01:46:52.175Z,13.4
2019-01-05T01:47:42.028Z,13.4
2019-01-05T01:48:33.090Z,13.4
2019-01-05T01:49:22.915Z,13.4
2019-01-05T01:50:13.487Z,13.4
2019-01-05T01:51:02.790Z,13.4
2019-01-05T01:51:52.245Z,13.4
2019-01-05T01:52:43.445Z,13.4
2019-01-05T01:53:33.995Z,13.4
2019-01-05T01:54:23.525Z,13.4
2019-01-05T01:55:13.070Z,13.4
2019-01-05T01:56:03.050Z,13.4
2019-01-05T01:56:52.587Z,13.4
2019-01-05T01:57:42.702Z,13.4
2019-01-05T01:58:33.570Z,13.4
2019-01-05T01:59:23.875Z,13.4
2019-01-05T02:00:13.369Z,13.4
2019-01-05T02:01:04.044Z,13.4
2019-01-05T02:01:52.672Z,13.4
2019-01-05T02:02:43.521Z,13.4
2019-01-05T02:03:33.911Z,13.4
2019-01-05T02:04:23.099Z,13.4
2019-01-05T02:05:13.724Z,13.4
2019-01-05T02:06:04.266Z,13.4
2019-01-05T02:06:54.426Z,13.4
2019-01-05T02:07:43.899Z,13.4
2019-01-05T02:08:34.801Z,13.4
2019-01-05T02:09:24.302Z,13.4
2019-01-05T02:10:14.116Z,13.4
2019-01-05T02:11:04.961Z,13.4
2019-01-05T02:11:54.456Z,13.4
2019-01-05T02:12:44.481Z,13.4
2019-01-05T02:13:35.181Z,13.4
2019-01-05T02:14:23.826Z,13.4
2019-01-05T02:15:14.701Z,13.4
2019-01-05T02:16:04.741Z,13.4
2019-01-05T02:16:54.753Z,13.4
2019-01-05T02:17:44.818Z,13.4
2019-01-05T02:18:36.736Z,13.4
2019-01-05T02:19:24.117Z,13.4
2019-01-05T02:20:14.740Z,13.4
2019-01-05T02:21:04.021Z,13.4
2019-01-05T02:21:55.085Z,13.4
2019-01-05T02:22:45.149Z,13.4
2019-01-05T02:23:34.969Z,13.4
2019-01-05T02:24:25.562Z,13.4
2019-01-05T02:25:15.088Z,13.4
2019-01-05T02:26:05.147Z,13.4
2019-01-05T02:26:55.228Z,13.5
2019-01-05T02:27:46.107Z,13.4
2019-01-05T02:28:35.069Z,13.4
2019-01-05T02:29:25.078Z,13.4
2019-01-05T02:30:15.530Z,13.4
2019-01-05T02:31:05.366Z,13.4
2019-01-05T02:31:55.195Z,13.4
2019-01-05T02:32:45.651Z,13.4
2019-01-05T02:33:36.476Z,13.4
2019-01-05T02:34:26.322Z,13.4
2019-01-05T02:35:16.103Z,13.4
2019-01-05T02:36:05.666Z,13.4
2019-01-05T02:36:55.162Z,13.4
2019-01-05T02:37:46.087Z,13.4
2019-01-05T02:38:34.991Z,13.4
2019-01-05T02:39:26.794Z,13.4
2019-01-05T02:40:15.895Z,13.4
2019-01-05T02:41:06.566Z,13.4
2019-01-05T02:41:56.611Z,13.4
2019-01-05T02:42:47.424Z,13.4
2019-01-05T02:43:36.683Z,13.4
2019-01-05T02:44:26.146Z,13.4
2019-01-05T02:45:17.092Z,13.4
2019-01-05T02:46:06.629Z,13.4
2019-01-05T02:46:56.829Z,13.4
2019-01-05T02:47:46.745Z,13.4
2019-01-05T02:48:36.431Z,13.4
2019-01-05T02:49:27.645Z,13.4
2019-01-05T02:50:16.819Z,13.4
2019-01-05T02:51:06.844Z,13.4
2019-01-05T02:51:58.027Z,13.4
2019-01-05T02:52:47.851Z,13.4
2019-01-05T02:53:37.568Z,13.5
2019-01-05T02:54:26.801Z,13.4
2019-01-05T02:55:17.390Z,13.5
2019-01-05T02:56:07.161Z,13.5
2019-01-05T02:56:57.256Z,13.5
2019-01-05T02:57:48.543Z,13.5
2019-01-05T02:58:37.636Z,13.4
2019-01-05T02:59:27.653Z,13.4
2019-01-05T03:00:17.775Z,13.4
2019-01-05T03:01:08.390Z,13.5
2019-01-05T03:01:57.025Z,13.4
2019-01-05T03:02:47.970Z,13.4
2019-01-05T03:03:38.060Z,13.4
2019-01-05T03:04:28.030Z,13.4
2019-01-05T03:05:17.572Z,13.4
2019-01-05T03:06:08.143Z,13.4
2019-01-05T03:06:57.403Z,13.5
2019-01-05T03:07:48.960Z,13.5
2019-01-05T03:08:38.335Z,13.5
2019-01-05T03:09:28.702Z,13.5
2019-01-05T03:10:18.164Z,13.5
2019-01-05T03:11:07.092Z,13.5
2019-01-05T03:11:58.575Z,13.5
2019-01-05T03:12:49.458Z,13.5
2019-01-05T03:13:38.712Z,13.5
2019-01-05T03:14:29.115Z,13.5
2019-01-05T03:15:19.060Z,13.5
2019-01-05T03:16:08.564Z,13.4
2019-01-05T03:16:57.557Z,13.4
2019-01-05T03:17:49.848Z,13.5
2019-01-05T03:18:39.641Z,13.5
2019-01-05T03:19:29.138Z,13.5
2019-01-05T03:20:19.449Z,13.5
2019-01-05T03:21:09.497Z,13.5
2019-01-05T03:21:59.240Z,13.5
2019-01-05T03:22:49.546Z,13.5
2019-01-05T03:23:39.739Z,13.5
2019-01-05T03:24:28.282Z,13.5
2019-01-05T03:25:18.949Z,13.5
2019-01-05T03:26:08.972Z,13.5
2019-01-05T03:26:59.581Z,13.5
2019-01-05T03:27:49.409Z,13.5
2019-01-05T03:28:39.967Z,13.5
2019-01-05T03:29:29.471Z,13.5
2019-01-05T03:30:20.485Z,13.5
2019-01-05T03:31:10.973Z,13.5
2019-01-05T03:31:59.542Z,13.5
2019-01-05T03:32:50.845Z,13.5
2019-01-05T03:33:40.114Z,13.5
2019-01-05T03:34:30.093Z,13.5
2019-01-05T03:35:19.881Z,13.4
2019-01-05T03:36:10.184Z,13.5
2019-01-05T03:36:59.756Z,13.4
2019-01-05T03:37:50.616Z,13.4
2019-01-05T03:38:39.847Z,13.5
2019-01-05T03:39:29.681Z,13.5
2019-01-05T03:40:21.545Z,13.5
2019-01-05T03:41:09.995Z,13.5
2019-01-05T03:42:00.876Z,13.5
2019-01-05T03:42:50.989Z,13.5
2019-01-05T03:43:40.446Z,13.5
2019-01-05T03:44:30.775Z,13.5
2019-01-05T03:45:20.553Z,13.5
2019-01-05T03:46:10.435Z,13.5
2019-01-05T03:47:00.966Z,13.5
2019-01-05T03:47:49.848Z,13.5
2019-01-05T03:48:41.898Z,13.5
2019-01-05T03:49:31.131Z,13.5
2019-01-05T03:50:21.730Z,13.5
2019-01-05T03:51:11.722Z,13.6
2019-01-05T03:52:00.167Z,13.5
2019-01-05T03:52:50.768Z,13.5
2019-01-05T03:53:40.798Z,13.5
2019-01-05T03:54:31.690Z,13.5
2019-01-05T03:55:22.090Z,13.5
2019-01-05T03:56:10.979Z,13.5
2019-01-05T03:57:01.324Z,13.5
2019-01-05T03:57:51.692Z,13.5
2019-01-05T03:58:40.865Z,13.5
2019-01-05T03:59:32.024Z,13.5
2019-01-05T04:00:21.341Z,13.5
2019-01-05T04:01:12.444Z,13.5
2019-01-05T04:02:01.912Z,13.5
2019-01-05T04:02:52.338Z,13.6
2019-01-05T04:03:42.292Z,13.6
2019-01-05T04:04:32.954Z,13.6
2019-01-05T04:05:22.209Z,13.6
2019-01-05T04:06:11.676Z,13.5
2019-01-05T04:07:02.295Z,13.6
2019-01-05T04:07:51.867Z,13.5
2019-01-05T04:08:42.159Z,13.5
2019-01-05T04:09:32.491Z,13.5
2019-01-05T04:10:22.215Z,13.5
2019-01-05T04:11:11.436Z,13.6
2019-01-05T04:12:03.171Z,13.6
2019-01-05T04:12:51.893Z,13.6
2019-01-05T04:13:43.258Z,13.6
2019-01-05T04:14:31.971Z,13.6
2019-01-05T04:15:23.393Z,13.6
2019-01-05T04:16:12.878Z,13.6
2019-01-05T04:17:02.681Z,13.6
2019-01-05T04:17:53.334Z,13.6
2019-01-05T04:18:42.793Z,13.6
2019-01-05T04:19:33.686Z,13.6
2019-01-05T04:20:21.513Z,13.6
2019-01-05T04:21:12.418Z,13.6
2019-01-05T04:22:03.018Z,13.6
2019-01-05T04:22:53.571Z,13.6
2019-01-05T04:23:43.119Z,13.6
2019-01-05T04:24:33.743Z,13.6
2019-01-05T04:25:24.229Z,13.6
2019-01-05T04:26:12.765Z,13.6
2019-01-05T04:27:04.200Z,13.6
2019-01-05T04:27:53.703Z,13.6
2019-01-05T04:28:43.763Z,13.6
2019-01-05T04:29:33.842Z,13.6
2019-01-05T04:30:25.433Z,13.6
2019-01-05T04:31:14.202Z,13.6
2019-01-05T04:32:02.622Z,13.6
2019-01-05T04:32:54.322Z,13.6
2019-01-05T04:33:43.258Z,13.6
2019-01-05T04:34:34.210Z,13.6
2019-01-05T04:35:23.911Z,13.6
2019-01-05T04:36:13.779Z,13.6
2019-01-05T04:37:04.057Z,13.6
2019-01-05T04:37:54.480Z,13.6
2019-01-05T04:38:44.135Z,13.6
2019-01-05T04:39:34.767Z,13.6
2019-01-05T04:40:25.045Z,13.6
2019-01-05T04:41:15.001Z,13.6
2019-01-05T04:42:05.545Z,13.6
2019-01-05T04:42:53.332Z,13.6
2019-01-05T04:43:44.782Z,13.6
2019-01-05T04:44:34.364Z,13.6
2019-01-05T04:45:25.934Z,13.6
2019-01-05T05:02:44.638Z,13.6
2019-01-05T05:03:34.394Z,13.6
2019-01-05T05:04:24.179Z,13.6
2019-01-05T05:05:14.800Z,13.6
2019-01-05T05:06:04.782Z,13.6
2019-01-05T05:06:54.640Z,13.6
2019-01-05T05:07:45.650Z,13.6
2019-01-05T05:08:35.016Z,13.6
2019-01-05T05:09:23.690Z,13.6
2019-01-05T05:10:15.176Z,13.6
2019-01-05T05:11:03.977Z,13.6
2019-01-05T05:11:54.415Z,13.6
2019-01-05T05:12:45.648Z,13.6
2019-01-05T05:13:34.727Z,13.6
2019-01-05T05:14:24.563Z,13.6
2019-01-05T05:15:15.205Z,13.6
2019-01-05T05:16:05.555Z,13.6
2019-01-05T05:16:55.097Z,13.6
2019-01-05T05:17:45.587Z,13.6
2019-01-05T05:18:36.237Z,13.6
2019-01-05T05:19:24.602Z,13.6
2019-01-05T05:20:16.375Z,13.6
2019-01-05T05:21:05.024Z,13.6
2019-01-05T05:21:55.176Z,13.6
2019-01-05T05:22:45.510Z,13.6
2019-01-05T05:23:35.816Z,13.6
2019-01-05T05:24:25.543Z,13.6
2019-01-05T05:25:16.360Z,13.5
2019-01-05T05:26:05.687Z,13.5
2019-01-05T05:26:55.169Z,13.5
2019-01-05T05:27:45.603Z,13.5
2019-01-05T05:28:36.719Z,13.5
2019-01-05T05:29:25.452Z,13.4
2019-01-05T05:30:16.256Z,13.4
2019-01-05T05:31:06.330Z,13.4
2019-01-05T05:31:56.541Z,13.4
2019-01-05T05:32:46.225Z,13.4
2019-01-05T05:33:36.107Z,13.4
2019-01-05T05:34:26.739Z,13.4
2019-01-05T05:35:16.479Z,13.3
2019-01-05T05:36:05.991Z,13.3
2019-01-05T05:36:56.089Z,13.3
2019-01-05T05:37:47.220Z,13.3
2019-01-05T05:38:36.456Z,13.3
2019-01-05T05:39:27.068Z,13.3
2019-01-05T05:40:16.643Z,13.3
2019-01-05T05:41:06.362Z,13.3
2019-01-05T05:41:56.869Z,13.3
2019-01-05T05:42:46.685Z,13.2
2019-01-05T05:43:38.128Z,13.2
2019-01-05T05:44:28.009Z,13.1
2019-01-05T05:45:17.231Z,13.1
2019-01-05T05:46:07.511Z,13.1
2019-01-05T05:46:56.573Z,13.1
2019-01-05T05:47:47.568Z,13.1
2019-01-05T05:48:36.875Z,13.1
2019-01-05T05:49:28.350Z,13.1
2019-01-05T05:50:16.973Z,13.1
2019-01-05T05:51:07.593Z,13.1
2019-01-05T05:51:58.283Z,13.1
2019-01-05T05:52:48.282Z,13
2019-01-05T05:53:37.514Z,13
2019-01-05T05:54:26.501Z,13
2019-01-05T05:55:17.908Z,12.9
2019-01-05T05:56:07.365Z,12.9
2019-01-05T05:56:58.460Z,12.9
2019-01-05T05:57:47.780Z,12.9
2019-01-05T05:58:37.887Z,12.9
2019-01-05T05:59:27.959Z,12.9
2019-01-05T06:00:17.668Z,12.9
2019-01-05T06:01:08.539Z,12.9
2019-01-05T06:01:57.852Z,12.9
2019-01-05T06:02:48.060Z,12.9
2019-01-05T06:03:38.982Z,12.9
2019-01-05T06:04:29.063Z,12.9
2019-01-05T06:05:18.542Z,12.9
2019-01-05T06:06:08.873Z,12.9
2019-01-05T06:06:58.082Z,12.8
2019-01-05T06:07:47.846Z,12.8
2019-01-05T06:08:39.266Z,12.8
2019-01-05T06:09:29.169Z,12.8
2019-01-05T06:10:19.134Z,12.8
2019-01-05T06:11:09.264Z,12.8
2019-01-05T06:11:59.279Z,12.8
2019-01-05T06:12:48.999Z,12.8
2019-01-05T06:13:38.846Z,12.8
2019-01-05T06:14:29.134Z,12.8
2019-01-05T06:15:19.809Z,12.8
2019-01-05T06:16:08.694Z,12.8
2019-01-05T06:16:57.954Z,12.8
2019-01-05T06:17:49.081Z,12.8
2019-01-05T06:18:38.861Z,12.7
2019-01-05T06:19:30.326Z,12.7
2019-01-05T06:20:19.285Z,12.7
2019-01-05T06:21:09.601Z,12.7
2019-01-05T06:21:59.134Z,12.7
2019-01-05T06:22:49.948Z,12.7
2019-01-05T06:23:39.997Z,12.7
2019-01-05T06:24:30.162Z,12.7
2019-01-05T06:25:20.718Z,12.7
2019-01-05T06:26:10.239Z,12.7
2019-01-05T06:26:59.697Z,12.7
2019-01-05T06:27:49.277Z,12.6
2019-01-05T06:28:40.879Z,12.6
2019-01-05T06:29:30.185Z,12.6
2019-01-05T06:30:19.927Z,12.6
2019-01-05T06:31:10.553Z,12.6
2019-01-05T06:31:59.749Z,12.6
2019-01-05T06:32:49.579Z,12.6
2019-01-05T06:33:40.531Z,12.6
2019-01-05T06:34:31.149Z,12.6
2019-01-05T06:35:20.416Z,12.6
2019-01-05T06:36:10.129Z,12.6
2019-01-05T06:37:00.681Z,12.6
2019-01-05T06:37:49.892Z,12.6
2019-01-05T06:38:41.108Z,12.6
2019-01-05T06:39:30.336Z,12.6
2019-01-05T06:40:20.894Z,12.6
2019-01-05T06:41:11.785Z,12.6
2019-01-05T06:42:00.741Z,12.6
2019-01-05T06:42:51.090Z,12.6
2019-01-05T06:43:40.843Z,12.5
2019-01-05T06:44:32.518Z,12.5
2019-01-05T06:45:21.758Z,12.5
2019-01-05T06:46:10.828Z,12.5
2019-01-05T06:47:00.869Z,12.5
2019-01-05T06:47:51.408Z,12.5
2019-01-05T06:48:41.744Z,12.5
2019-01-05T06:49:32.035Z,12.5
2019-01-05T06:50:21.818Z,12.5
2019-01-05T06:51:12.211Z,12.4
2019-01-05T06:52:01.986Z,12.5
2019-01-05T06:52:50.631Z,12.5
2019-01-05T06:53:41.763Z,12.4
2019-01-05T06:54:31.590Z,12.4
2019-01-05T06:55:22.705Z,12.4
2019-01-05T06:56:11.667Z,12.4
2019-01-05T06:57:02.558Z,12.4
2019-01-05T06:57:51.808Z,12.4
2019-01-05T06:58:41.860Z,12.4
2019-01-05T06:59:31.385Z,12.4
2019-01-05T07:00:21.913Z,12.4
2019-01-05T07:01:11.827Z,12.4
2019-01-05T07:02:01.315Z,12.4
2019-01-05T07:02:52.474Z,12.4
2019-01-05T07:03:42.027Z,12.4
2019-01-05T07:04:32.050Z,12.4
2019-01-05T07:05:22.625Z,12.4
2019-01-05T07:06:11.532Z,12.4
2019-01-05T07:07:02.225Z,12.4
2019-01-05T07:07:52.752Z,12.3
2019-01-05T07:08:42.305Z,12.3
2019-01-05T07:09:32.868Z,12.4
2019-01-05T07:10:23.213Z,12.4
2019-01-05T07:11:13.692Z,12.3
2019-01-05T07:12:02.792Z,12.3
2019-01-05T07:12:53.372Z,12.3
2019-01-05T07:13:43.497Z,12.3
2019-01-05T07:14:33.828Z,12.3
2019-01-05T07:15:23.298Z,12.3
2019-01-05T07:16:13.057Z,12.3
2019-01-05T07:17:04.254Z,12.3
2019-01-05T07:17:53.411Z,12.3
2019-01-05T07:18:43.221Z,12.3
2019-01-05T07:19:33.561Z,12.3
2019-01-05T07:20:23.574Z,12.3
2019-01-05T07:21:13.436Z,12.3
2019-01-05T07:22:02.716Z,12.3
2019-01-05T07:22:54.236Z,12.3
2019-01-05T07:23:43.811Z,12.2
2019-01-05T07:24:34.714Z,12.1
2019-01-05T07:25:23.991Z,12.1
2019-01-05T07:26:14.816Z,12
2019-01-05T07:27:04.616Z,12
2019-01-05T07:27:54.388Z,12
2019-01-05T07:28:44.427Z,12
2019-01-05T07:29:33.385Z,11.9
2019-01-05T07:30:24.840Z,11.9
2019-01-05T07:31:14.073Z,11.9
2019-01-05T07:32:04.133Z,11.8
2019-01-05T07:32:55.040Z,11.8
2019-01-05T07:33:44.213Z,11.9
2019-01-05T07:34:34.288Z,11.9
2019-01-05T07:35:24.887Z,11.9
2019-01-05T07:36:14.657Z,11.9
2019-01-05T07:37:04.448Z,11.9
2019-01-05T07:37:54.780Z,11.9
2019-01-05T07:38:44.563Z,11.9
2019-01-05T07:39:34.745Z,11.9
2019-01-05T07:40:24.682Z,11.9
2019-01-05T07:41:14.940Z,11.9
2019-01-05T07:42:05.038Z,11.9
2019-01-05T07:42:54.584Z,12
2019-01-05T07:43:45.245Z,11.9
2019-01-05T07:44:35.775Z,12
2019-01-05T07:45:25.067Z,12
2019-01-05T07:46:14.595Z,12
2019-01-05T07:47:05.180Z,12
2019-01-05T07:47:55.232Z,12
2019-01-05T07:48:46.082Z,12
2019-01-05T07:49:35.880Z,12
2019-01-05T07:50:25.914Z,12
2019-01-05T07:51:15.734Z,12
2019-01-05T07:52:05.857Z,12
2019-01-05T07:52:55.802Z,12
2019-01-05T07:53:46.434Z,12
2019-01-05T07:54:36.468Z,12
2019-01-05T07:55:26.612Z,12
2019-01-05T07:56:16.281Z,11.9
2019-01-05T07:57:06.101Z,11.9
2019-01-05T07:57:55.894Z,12
2019-01-05T07:58:46.209Z,12
2019-01-05T07:59:37.099Z,12
2019-01-05T08:00:27.143Z,12
2019-01-05T08:01:15.836Z,12
2019-01-05T08:02:06.251Z,11.9
2019-01-05T08:02:56.526Z,11.9
2019-01-05T08:03:46.546Z,11.9
2019-01-05T08:04:36.128Z,11.9
2019-01-05T08:05:26.508Z,11.9
2019-01-05T08:06:17.613Z,11.9
2019-01-05T08:07:07.101Z,11.9
2019-01-05T08:07:56.991Z,11.9
2019-01-05T08:08:46.153Z,11.9
2019-01-05T08:09:36.753Z,11.9
2019-01-05T08:10:26.520Z,11.9
2019-01-05T08:11:15.968Z,11.9
2019-01-05T08:12:06.636Z,11.9
2019-01-05T08:12:56.704Z,11.9
2019-01-05T08:13:46.953Z,11.9
2019-01-05T08:14:36.753Z,11.9
2019-01-05T08:15:27.641Z,11.9
2019-01-05T08:16:17.700Z,11.9
2019-01-05T08:17:07.468Z,11.9
2019-01-05T08:17:56.705Z,11.9
2019-01-05T08:18:47.650Z,11.9
2019-01-05T08:19:37.068Z,11.8
2019-01-05T08:20:27.208Z,11.9
2019-01-05T08:21:17.192Z,11.8
2019-01-05T08:22:08.345Z,11.8
2019-01-05T08:22:57.788Z,11.8
2019-01-05T08:23:47.652Z,11.8
2019-01-05T08:24:38.524Z,11.9
2019-01-05T08:25:27.221Z,11.6
2019-01-05T08:26:17.377Z,10.9
2019-01-05T08:27:07.942Z,10.5
2019-01-05T08:27:57.340Z,10.1
2019-01-05T08:28:48.580Z,10
2019-01-05T08:29:38.382Z,10.3
2019-01-05T08:30:28.148Z,10.5
2019-01-05T08:31:18.717Z,10.6
2019-01-05T08:32:08.822Z,10.5
2019-01-05T08:32:57.980Z,10.6
2019-01-05T08:33:49.422Z,10.8
2019-01-05T08:34:37.584Z,10.9
2019-01-05T08:35:28.907Z,10.9
2019-01-05T08:36:17.999Z,11.1
2019-01-05T08:37:07.767Z,11.1
2019-01-05T08:37:58.677Z,11.2
2019-01-05T08:38:48.369Z,11.3
2019-01-05T08:39:39.396Z,11.3
2019-01-05T08:40:28.842Z,11.3
2019-01-05T08:41:18.616Z,11.4
2019-01-05T08:42:09.857Z,11.4
2019-01-05T08:42:58.046Z,11.4
2019-01-05T08:43:48.861Z,11.4
2019-01-05T08:44:38.286Z,11.4
2019-01-05T08:45:29.187Z,11.4
2019-01-05T08:46:19.238Z,11.4
2019-01-05T08:47:09.581Z,11.4
2019-01-05T08:47:59.123Z,11.4
2019-01-05T08:48:49.436Z,11.5
2019-01-05T08:49:38.671Z,11.4
2019-01-05T08:50:29.833Z,11.4
2019-01-05T08:51:19.843Z,11.4
2019-01-05T08:52:09.316Z,11.4
2019-01-05T08:52:59.474Z,11.4
2019-01-05T08:53:49.712Z,11.5
2019-01-05T08:54:39.328Z,11.4
2019-01-05T08:55:29.006Z,11.4
2019-01-05T08:56:19.627Z,11.5
2019-01-05T08:57:08.843Z,11.5
2019-01-05T08:57:59.235Z,11.5
2019-01-05T08:58:49.827Z,11.5
2019-01-05T08:59:40.645Z,11.5
2019-01-05T09:00:31.033Z,11.5
2019-01-05T09:01:19.363Z,11.5
2019-01-05T09:17:11.793Z,11.4
2019-01-05T09:18:01.552Z,11.4
2019-01-05T09:18:51.136Z,11.5
2019-01-05T09:19:41.379Z,11.4
2019-01-05T09:20:31.718Z,11.4
2019-01-05T09:21:21.477Z,11.4
2019-01-05T09:22:11.742Z,11.5
2019-01-05T09:23:02.226Z,11.5
2019-01-05T09:23:51.719Z,11.4
2019-01-05T09:24:40.889Z,11.4
2019-01-05T09:25:32.322Z,11.4
2019-01-05T09:26:21.811Z,11.5
2019-01-05T09:27:11.624Z,11.5
2019-01-05T09:28:01.903Z,11.5
2019-01-05T09:28:52.036Z,11.4
2019-01-05T09:29:42.327Z,11.5
2019-01-05T09:30:31.286Z,11.5
2019-01-05T09:31:22.446Z,11.5
2019-01-05T09:32:11.671Z,11.5
2019-01-05T09:33:01.996Z,11.5
2019-01-05T09:33:52.324Z,11.5
2019-01-05T09:34:42.965Z,11.5
2019-01-05T09:35:31.650Z,11.6
2019-01-05T09:36:23.053Z,11.6
2019-01-05T09:37:12.413Z,11.6
2019-01-05T09:38:02.102Z,11.6
2019-01-05T09:38:52.978Z,11.6
2019-01-05T09:39:42.233Z,11.7
2019-01-05T09:40:32.663Z,11.7
2019-01-05T09:41:23.128Z,11.7
2019-01-05T09:42:12.793Z,11.8
2019-01-05T09:43:02.513Z,11.8
2019-01-05T09:43:53.562Z,11.8
2019-01-05T09:44:42.783Z,11.8
2019-01-05T09:45:33.442Z,11.8
2019-01-05T09:46:22.366Z,11.8
2019-01-05T09:47:13.190Z,11.8
2019-01-05T09:48:03.955Z,11.8
2019-01-05T09:48:53.350Z,11.9
2019-01-05T09:49:43.700Z,11.9
2019-01-05T09:50:32.377Z,11.9
2019-01-05T09:51:23.810Z,11.9
2019-01-05T09:52:14.440Z,11.9
2019-01-05T09:53:03.377Z,11.9
2019-01-05T09:53:53.707Z,11.9
2019-01-05T09:54:43.267Z,11.9
2019-01-05T09:55:33.290Z,11.9
2019-01-05T09:56:21.397Z,12
2019-01-05T09:57:13.324Z,12
2019-01-05T09:58:04.734Z,12
2019-01-05T09:58:53.757Z,12
2019-01-05T09:59:44.457Z,12
2019-01-05T10:00:33.880Z,12.1
2019-01-05T10:01:24.284Z,12.1
2019-01-05T10:02:13.749Z,12.1
2019-01-05T10:03:02.282Z,12.1
2019-01-05T10:03:54.486Z,12.1
2019-01-05T10:04:43.364Z,12.1
2019-01-05T10:05:35.396Z,12.1
2019-01-05T10:06:24.394Z,12.1
2019-01-05T10:07:15.196Z,12.1
2019-01-05T10:08:05.274Z,12.1
2019-01-05T10:08:54.776Z,12.1
2019-01-05T10:09:44.574Z,12.2
2019-01-05T10:10:34.324Z,12.2
2019-01-05T10:11:24.428Z,12.2
2019-01-05T10:12:14.421Z,12.2
2019-01-05T10:13:05.664Z,12.2
2019-01-05T10:13:55.100Z,12.3
2019-01-05T10:14:45.158Z,12.2
2019-01-05T10:15:35.527Z,12.2
2019-01-05T10:16:25.301Z,12.3
2019-01-05T10:17:15.089Z,12.3
2019-01-05T10:18:06.826Z,12.3
2019-01-05T10:18:54.066Z,12.3
2019-01-05T10:19:46.026Z,12.3
2019-01-05T10:20:34.730Z,12.3
2019-01-05T10:21:25.098Z,12.3
2019-01-05T10:22:15.990Z,12.3
2019-01-05T10:23:06.560Z,12.3
2019-01-05T10:23:56.345Z,12.3
2019-01-05T10:24:45.053Z,12.3
2019-01-05T10:25:35.333Z,12.4
2019-01-05T10:26:25.460Z,12.4
2019-01-05T10:27:14.910Z,12.4
2019-01-05T10:28:05.577Z,12.4
2019-01-05T10:28:55.895Z,12.4
2019-01-05T10:29:46.173Z,12.4
2019-01-05T10:30:36.253Z,12.4
2019-01-05T10:31:26.280Z,12.4
2019-01-05T10:32:16.309Z,12.4
2019-01-05T10:33:05.960Z,12.4
2019-01-05T10:33:56.765Z,12.4
2019-01-05T10:34:46.790Z,12.4
2019-01-05T10:35:36.325Z,12.4
2019-01-05T10:36:26.050Z,12.4
2019-01-05T10:37:16.127Z,12.4
2019-01-05T10:38:06.737Z,12.4
2019-01-05T10:38:56.759Z,12.4
2019-01-05T10:39:46.847Z,12.4
2019-01-05T10:40:36.620Z,12.4
2019-01-05T10:41:26.732Z,12.5
2019-01-05T10:42:16.595Z,12.5
2019-01-05T10:43:06.872Z,12.5
2019-01-05T10:43:57.444Z,12.5
2019-01-05T10:44:46.094Z,12.5
2019-01-05T10:45:37.525Z,12.5
2019-01-05T10:46:26.747Z,12.5
2019-01-05T10:47:17.069Z,12.5
2019-01-05T10:48:08.012Z,12.5
2019-01-05T10:48:57.764Z,12.6
2019-01-05T10:49:47.014Z,12.5
2019-01-05T10:50:36.781Z,12.6
2019-01-05T10:51:27.090Z,12.6
2019-01-05T10:52:16.631Z,12.6
2019-01-05T10:53:06.954Z,12.6
2019-01-05T10:53:57.314Z,12.6
2019-01-05T10:54:47.306Z,12.6
2019-01-05T10:55:37.664Z,12.6
2019-01-05T10:56:26.608Z,12.6
2019-01-05T10:57:18.187Z,12.6
2019-01-05T10:58:07.616Z,12.6
2019-01-05T10:58:58.713Z,12.6
2019-01-05T10:59:48.219Z,12.6
2019-01-05T11:00:37.993Z,12.6
2019-01-05T11:01:28.406Z,12.6
2019-01-05T11:02:18.188Z,12.6
2019-01-05T11:03:07.656Z,12.7
2019-01-05T11:04:00.313Z,12.7
2019-01-05T11:04:48.310Z,12.7
2019-01-05T11:05:37.594Z,12.7
2019-01-05T11:06:27.909Z,12.7
2019-01-05T11:07:18.723Z,12.7
2019-01-05T11:08:08.500Z,12.7
2019-01-05T11:08:58.898Z,12.7
2019-01-05T11:09:47.454Z,12.8
2019-01-05T11:10:38.927Z,12.8
2019-01-05T11:11:28.723Z,12.8
2019-01-05T11:12:19.063Z,12.8
2019-01-05T11:13:07.827Z,12.8
2019-01-05T11:13:59.447Z,12.8
2019-01-05T11:14:50.392Z,12.8
2019-01-05T11:15:39.273Z,12.8
2019-01-05T11:16:29.098Z,12.8
2019-01-05T11:17:19.492Z,12.8
2019-01-05T11:18:10.017Z,12.8
2019-01-05T11:19:01.428Z,12.8
2019-01-05T11:19:49.563Z,12.8
2019-01-05T11:20:43.667Z,12.8
2019-01-05T11:21:30.585Z,12.8
2019-01-05T11:22:19.834Z,12.8
2019-01-05T11:23:10.100Z,12.8
2019-01-05T11:24:00.501Z,12.8
2019-01-05T11:24:49.090Z,12.8
2019-01-05T11:25:39.775Z,12.8
2019-01-05T11:26:30.112Z,12.8
2019-01-05T11:27:19.822Z,12.8
2019-01-05T11:28:09.915Z,12.8
2019-01-05T11:28:59.990Z,12.8
2019-01-05T11:29:50.311Z,12.8
2019-01-05T11:30:39.509Z,12.8
2019-01-05T11:31:30.838Z,12.8
2019-01-05T11:32:21.670Z,12.8
2019-01-05T11:33:10.885Z,12.8
2019-01-05T11:34:01.230Z,12.8
2019-01-05T11:34:50.642Z,12.9
2019-01-05T11:35:40.434Z,12.9
2019-01-05T11:36:30.789Z,12.9
2019-01-05T11:37:20.264Z,12.8
2019-01-05T11:38:10.882Z,12.9
2019-01-05T11:39:01.786Z,12.9
2019-01-05T11:39:50.738Z,12.8
2019-01-05T11:40:40.253Z,12.9
2019-01-05T11:41:31.666Z,12.9
2019-01-05T11:42:21.197Z,12.9
2019-01-05T11:43:11.306Z,12.9
2019-01-05T11:44:01.367Z,12.9
2019-01-05T11:44:51.068Z,12.9
2019-01-05T11:45:41.246Z,12.9
2019-01-05T11:46:32.115Z,12.9
2019-01-05T11:47:21.794Z,12.9
2019-01-05T11:48:12.112Z,12.9
2019-01-05T11:49:01.669Z,12.9
2019-01-05T11:49:52.519Z,12.9
2019-01-05T11:50:41.417Z,12.9
2019-01-05T11:51:31.563Z,12.9
2019-01-05T11:52:21.863Z,12.9
2019-01-05T11:53:11.883Z,12.9
2019-01-05T11:54:02.329Z,12.9
2019-01-05T11:54:51.475Z,12.9
2019-01-05T11:55:42.387Z,12.9
2019-01-05T11:56:32.144Z,12.9
2019-01-05T11:57:22.247Z,12.9